Terminal Aerodrome Forecast
Issued by NWS

Home | Current Version | Previous Version | Text Only | Print | Product List | Glossary On
Versions: 1 2 3 4 5 6 7 8 9 10 11 12 13 14 15 16 17 18 19 20 21 22 23 24 25 26 27 28 29
048
FTUS42 KCAE 011737
TAFDNL
TAF
KDNL 011737Z 0118/0218 23015G25KT P6SM SCT030 BKN040
     FM020000 23012G22KT P6SM -TSRA SCT020CB OVC050
      TEMPO 0201/0205 2SM TSRA OVC035CB
     FM020600 29012G20KT 6SM -RA BR OVC045
     FM020800 30010G18KT P6SM OVC045
     FM021200 34010KT P6SM SCT250=

USA.gov is the U.S. government's official web portal to all federal, state and local government web resources and services.